createdAt,value
2022-10-06T00:02:27.925Z,15.14
2022-10-06T00:05:17.496Z,15.27
2022-10-06T00:08:05.161Z,15.33
2022-10-06T00:10:54.717Z,15.30
2022-10-06T00:13:42.384Z,15.24
2022-10-06T00:16:31.901Z,15.16
2022-10-06T00:19:19.481Z,15.37
2022-10-06T00:22:07.080Z,15.22
2022-10-06T00:24:54.650Z,15.07
2022-10-06T00:27:42.188Z,15.03
2022-10-06T00:30:29.763Z,15.26
2022-10-06T00:33:17.323Z,15.32
2022-10-06T00:36:04.902Z,15.53
2022-10-06T00:38:52.454Z,15.64
2022-10-06T00:41:40.042Z,15.42
2022-10-06T00:44:27.600Z,15.40
2022-10-06T00:47:15.181Z,15.43
2022-10-06T00:50:02.730Z,15.34
2022-10-06T00:52:50.296Z,15.49
2022-10-06T00:55:37.850Z,15.32
2022-10-06T00:58:25.783Z,15.21
2022-10-06T01:01:13.686Z,15.57
2022-10-06T01:04:01.291Z,15.32
2022-10-06T01:06:48.807Z,15.56
2022-10-06T01:09:36.359Z,15.18
2022-10-06T01:12:23.898Z,15.34
2022-10-06T01:15:11.454Z,15.39
2022-10-06T01:17:58.991Z,15.52
2022-10-06T01:20:46.562Z,15.38
2022-10-06T01:23:34.108Z,15.45
2022-10-06T01:26:21.663Z,15.24
2022-10-06T01:29:09.211Z,15.13
2022-10-06T01:31:56.769Z,15.19
2022-10-06T01:34:44.317Z,15.18
2022-10-06T01:37:31.890Z,14.88
2022-10-06T01:40:19.454Z,15.31
2022-10-06T01:43:07.072Z,15.28
2022-10-06T01:45:54.618Z,15.19
2022-10-06T01:48:42.173Z,15.24
2022-10-06T01:51:29.745Z,15.18
2022-10-06T01:54:17.309Z,15.15
2022-10-06T01:57:04.844Z,14.97
2022-10-06T01:59:54.784Z,15.14
2022-10-06T02:02:42.613Z,15.06
2022-10-06T02:05:30.171Z,15.07
2022-10-06T02:08:17.704Z,14.86
2022-10-06T02:11:05.315Z,15.19
2022-10-06T02:13:52.874Z,15.30
2022-10-06T02:16:40.431Z,15.09
2022-10-06T02:19:27.980Z,15.35
2022-10-06T02:22:15.513Z,15.39
2022-10-06T02:25:03.077Z,15.64
2022-10-06T02:27:50.627Z,15.46
2022-10-06T02:30:38.271Z,15.60
2022-10-06T02:33:25.806Z,15.59
2022-10-06T02:36:13.369Z,15.99
2022-10-06T02:39:00.940Z,15.88
2022-10-06T02:41:48.491Z,16.07
2022-10-06T02:44:36.060Z,15.96
2022-10-06T02:47:23.589Z,16.16
2022-10-06T02:50:11.159Z,15.97
2022-10-06T02:52:58.709Z,15.66
2022-10-06T02:55:46.270Z,15.12
2022-10-06T02:58:33.825Z,15.26
2022-10-06T03:01:21.452Z,15.15
2022-10-06T03:04:09.057Z,15.16
2022-10-06T03:06:56.621Z,15.30
2022-10-06T03:09:44.172Z,15.35
2022-10-06T03:12:31.731Z,15.40
2022-10-06T03:15:19.281Z,15.38
2022-10-06T03:18:06.932Z,15.49
2022-10-06T03:20:54.466Z,15.21
2022-10-06T03:23:42.031Z,15.39
2022-10-06T03:26:29.580Z,15.60
2022-10-06T03:29:17.142Z,15.31
2022-10-06T03:32:04.708Z,15.24
2022-10-06T03:34:52.275Z,15.13
2022-10-06T03:37:39.958Z,15.40
2022-10-06T03:40:27.497Z,15.24
2022-10-06T03:43:15.064Z,15.20
2022-10-06T03:46:02.601Z,14.87
2022-10-06T03:48:50.155Z,15.39
2022-10-06T03:51:37.691Z,15.50
2022-10-06T03:54:25.258Z,15.92
2022-10-06T03:57:12.817Z,15.66
2022-10-06T04:00:00.389Z,15.26
2022-10-06T04:02:47.946Z,15.79
2022-10-06T04:05:35.505Z,15.79
2022-10-06T04:08:23.049Z,15.80
2022-10-06T04:11:10.619Z,15.92
2022-10-06T04:13:58.164Z,15.63
2022-10-06T04:16:45.883Z,15.66
2022-10-06T04:19:33.483Z,15.68
2022-10-06T04:22:21.050Z,15.41
2022-10-06T04:25:08.596Z,15.89
2022-10-06T04:27:56.152Z,15.83
2022-10-06T04:30:43.706Z,15.97
2022-10-06T04:33:31.272Z,15.91
2022-10-06T04:36:18.821Z,15.95
2022-10-06T04:39:06.475Z,16.24
2022-10-06T04:41:56.019Z,16.20
2022-10-06T04:44:43.577Z,16.65
2022-10-06T04:47:31.105Z,16.68
2022-10-06T04:50:18.661Z,16.90
2022-10-06T04:53:06.256Z,17.21
2022-10-06T04:55:53.807Z,17.20
2022-10-06T04:58:41.358Z,17.22
2022-10-06T05:01:28.964Z,16.94
2022-10-06T05:04:16.617Z,17.35
2022-10-06T05:07:04.151Z,17.37
2022-10-06T05:09:51.704Z,17.50
2022-10-06T05:12:39.246Z,17.58
2022-10-06T05:15:26.817Z,17.72
2022-10-06T05:18:14.359Z,17.66
2022-10-06T05:21:06.350Z,17.87
2022-10-06T05:23:54.216Z,18.05
2022-10-06T05:26:41.769Z,18.16
2022-10-06T05:29:29.323Z,18.45
2022-10-06T05:32:16.890Z,18.52
2022-10-06T05:35:04.424Z,18.61
2022-10-06T05:37:52.157Z,18.77
2022-10-06T05:40:39.701Z,18.64
2022-10-06T05:43:27.265Z,18.68
2022-10-06T05:46:14.841Z,18.71
2022-10-06T05:49:04.434Z,18.52
2022-10-06T05:51:51.971Z,18.53
2022-10-06T05:54:39.524Z,18.52
2022-10-06T05:57:27.068Z,18.37
2022-10-06T06:00:14.611Z,18.34
2022-10-06T06:03:02.182Z,18.43
2022-10-06T06:05:49.859Z,18.51
2022-10-06T06:08:39.380Z,18.52
2022-10-06T06:11:27.191Z,18.63
2022-10-06T06:14:14.815Z,18.65
2022-10-06T06:17:02.475Z,18.62
2022-10-06T06:19:50.105Z,18.49
2022-10-06T06:22:37.664Z,18.43
2022-10-06T06:25:25.233Z,18.58
2022-10-06T06:28:12.814Z,18.69
2022-10-06T06:31:00.458Z,18.83
2022-10-06T06:33:48.051Z,18.76
2022-10-06T06:36:35.878Z,19.03
2022-10-06T06:39:25.539Z,19.11
2022-10-06T06:42:13.092Z,19.30
2022-10-06T06:45:00.682Z,19.26
2022-10-06T06:47:48.232Z,19.50
2022-10-06T06:50:35.792Z,19.59
2022-10-06T06:53:23.342Z,19.54
2022-10-06T06:56:10.921Z,19.72
2022-10-06T06:58:58.473Z,19.81
2022-10-06T07:01:46.187Z,19.91
2022-10-06T07:04:33.839Z,19.87
2022-10-06T07:07:21.409Z,20.14
2022-10-06T07:10:08.942Z,20.33
2022-10-06T07:12:56.505Z,19.79
2022-10-06T07:15:46.094Z,20.08
2022-10-06T07:18:33.685Z,20.20
2022-10-06T07:21:21.265Z,20.30
2022-10-06T07:24:10.816Z,20.17
2022-10-06T07:26:58.393Z,19.27
2022-10-06T07:29:45.958Z,19.26
2022-10-06T07:32:33.521Z,19.12
2022-10-06T07:35:21.103Z,19.69
2022-10-06T07:38:08.662Z,19.82
2022-10-06T07:41:14.891Z,20.12
2022-10-06T07:44:07.870Z,18.40
2022-10-06T07:46:55.884Z,18.45
2022-10-06T07:49:43.436Z,18.70
2022-10-06T07:52:31.007Z,18.77
2022-10-06T07:55:18.557Z,18.25
2022-10-06T07:58:06.116Z,17.71
2022-10-06T08:00:53.690Z,16.23
2022-10-06T08:03:41.373Z,16.48
2022-10-06T08:06:28.927Z,17.53
2022-10-06T08:09:16.509Z,17.35
2022-10-06T08:12:04.060Z,17.99
2022-10-06T08:14:51.973Z,18.10
2022-10-06T08:17:39.782Z,18.42
2022-10-06T08:20:27.339Z,17.41
2022-10-06T08:23:14.898Z,17.41
2022-10-06T08:26:02.457Z,17.94
2022-10-06T08:28:50.035Z,17.59
2022-10-06T08:31:37.623Z,17.04
2022-10-06T08:34:25.196Z,17.56
2022-10-06T08:37:20.233Z,16.75
2022-10-06T08:40:08.093Z,16.92
2022-10-06T08:42:55.636Z,17.29
2022-10-06T08:45:43.312Z,16.82
2022-10-06T08:48:30.905Z,15.86
2022-10-06T08:51:18.474Z,16.44
2022-10-06T08:54:06.040Z,16.83
2022-10-06T08:56:53.612Z,17.06
2022-10-06T08:59:41.170Z,17.57
2022-10-06T09:02:28.814Z,17.00
2022-10-06T09:05:16.434Z,17.10
2022-10-06T09:08:03.993Z,16.66
2022-10-06T09:10:51.537Z,16.93
2022-10-06T09:13:39.092Z,16.83
2022-10-06T09:16:26.685Z,17.35
2022-10-06T09:19:14.281Z,16.94
2022-10-06T09:22:01.838Z,17.10
2022-10-06T09:24:49.405Z,16.26
2022-10-06T09:27:36.948Z,16.88
2022-10-06T09:30:24.527Z,16.76
2022-10-06T09:33:12.089Z,17.19
2022-10-06T09:35:59.765Z,17.13
2022-10-06T09:38:47.315Z,17.26
2022-10-06T09:41:34.915Z,17.79
2022-10-06T09:44:22.607Z,17.63
2022-10-06T09:47:10.195Z,17.80
2022-10-06T09:49:59.738Z,18.04
2022-10-06T09:52:47.327Z,18.24
2022-10-06T09:55:34.847Z,18.61
2022-10-06T09:58:22.407Z,18.17
2022-10-06T10:01:09.975Z,18.17
2022-10-06T10:04:15.945Z,18.30
2022-10-06T10:07:05.072Z,17.54
2022-10-06T10:09:53.897Z,17.79
2022-10-06T10:12:41.695Z,17.56
2022-10-06T10:15:29.249Z,18.24
2022-10-06T10:18:16.842Z,17.99
2022-10-06T10:21:04.398Z,17.83
2022-10-06T10:23:51.974Z,18.14
2022-10-06T10:26:39.524Z,18.55
2022-10-06T10:29:30.521Z,18.33
2022-10-06T10:32:20.023Z,18.51
2022-10-06T10:35:07.580Z,17.74
2022-10-06T10:37:55.146Z,17.97
2022-10-06T10:40:42.803Z,18.19
2022-10-06T10:43:30.353Z,18.43
2022-10-06T10:46:17.982Z,18.26
2022-10-06T10:49:05.557Z,17.81
2022-10-06T10:51:53.114Z,17.48
2022-10-06T10:54:40.673Z,18.15
2022-10-06T10:57:28.215Z,18.17
2022-10-06T11:00:15.781Z,18.05
2022-10-06T11:03:03.325Z,18.60
2022-10-06T11:05:50.902Z,19.11
2022-10-06T11:08:38.464Z,18.69
2022-10-06T11:11:26.037Z,18.26
2022-10-06T11:14:13.584Z,18.86
2022-10-06T11:17:01.152Z,18.11
2022-10-06T11:19:48.700Z,18.25
2022-10-06T11:22:36.282Z,18.71
2022-10-06T11:25:23.852Z,18.75
2022-10-06T11:28:11.447Z,18.47
2022-10-06T11:30:59.028Z,18.03
2022-10-06T11:33:46.600Z,18.75
2022-10-06T11:36:34.140Z,18.75
2022-10-06T11:39:21.708Z,18.23
2022-10-06T11:42:09.271Z,18.81
2022-10-06T11:44:57.100Z,18.13
2022-10-06T11:47:44.869Z,18.99
2022-10-06T11:50:32.430Z,18.82
2022-10-06T11:53:19.986Z,19.26
2022-10-06T11:56:07.633Z,19.39
2022-10-06T11:58:55.172Z,18.81
2022-10-06T12:01:42.784Z,18.70
2022-10-06T12:04:30.365Z,18.96
2022-10-06T12:07:17.936Z,19.08
2022-10-06T12:10:05.482Z,19.15
2022-10-06T12:13:06.155Z,19.14
2022-10-06T12:19:02.409Z,19.76
2022-10-06T12:21:49.972Z,19.01
2022-10-06T12:24:37.522Z,18.81
2022-10-06T12:27:26.052Z,19.43
2022-10-06T12:30:13.912Z,19.02
2022-10-06T12:33:01.487Z,19.10
2022-10-06T12:35:49.036Z,18.96
2022-10-06T12:38:36.605Z,18.47
2022-10-06T12:41:24.174Z,18.94
2022-10-06T12:44:11.749Z,19.29
2022-10-06T12:46:59.306Z,19.38
2022-10-06T12:49:46.948Z,19.00
2022-10-06T12:52:34.480Z,19.20
2022-10-06T12:55:22.035Z,18.75
2022-10-06T12:58:09.587Z,18.78
2022-10-06T13:00:57.186Z,18.82
2022-10-06T13:03:44.774Z,18.47
2022-10-06T13:06:32.332Z,18.80
2022-10-06T13:09:19.860Z,18.67
2022-10-06T13:12:07.541Z,18.41
2022-10-06T13:14:55.091Z,18.72
2022-10-06T13:17:42.690Z,19.10
2022-10-06T13:20:30.243Z,19.05
2022-10-06T13:23:17.792Z,19.13
2022-10-06T13:26:05.342Z,18.94
2022-10-06T13:28:52.894Z,19.20
2022-10-06T13:31:40.438Z,18.82
2022-10-06T13:34:27.975Z,18.93
2022-10-06T13:37:15.628Z,19.30
2022-10-06T13:40:12.312Z,19.32
2022-10-06T13:43:09.137Z,19.47
2022-10-06T13:45:56.713Z,19.50
2022-10-06T13:48:44.289Z,19.36
2022-10-06T13:51:31.874Z,19.28
2022-10-06T13:54:19.400Z,19.11
2022-10-06T13:57:07.080Z,19.13
2022-10-06T13:59:54.639Z,19.13
2022-10-06T14:02:42.405Z,19.05
2022-10-06T14:05:29.996Z,18.76
2022-10-06T14:08:17.554Z,19.18
2022-10-06T14:11:05.130Z,19.26
2022-10-06T14:13:52.722Z,18.95
2022-10-06T14:16:40.267Z,19.21
2022-10-06T14:19:27.844Z,19.14
2022-10-06T14:22:15.396Z,18.74
2022-10-06T14:25:04.946Z,18.95
2022-10-06T14:27:52.496Z,18.41
2022-10-06T14:30:40.100Z,18.64
2022-10-06T14:33:27.700Z,18.28
2022-10-06T14:36:15.232Z,18.13
2022-10-06T14:39:02.794Z,18.12
2022-10-06T14:41:50.328Z,18.23
2022-10-06T14:44:37.885Z,18.43
2022-10-06T14:47:25.449Z,18.45
2022-10-06T14:50:12.999Z,18.25
2022-10-06T14:53:00.535Z,18.24
2022-10-06T14:55:48.093Z,18.34
2022-10-06T14:58:35.650Z,18.45
2022-10-06T15:01:23.214Z,18.04
2022-10-06T15:04:10.777Z,18.29
2022-10-06T15:06:58.348Z,18.18
2022-10-06T15:09:45.894Z,17.81
2022-10-06T15:12:34.183Z,17.99
2022-10-06T15:15:21.779Z,18.39
2022-10-06T15:18:09.331Z,18.41
2022-10-06T15:20:56.873Z,18.40
2022-10-06T15:23:44.527Z,18.64
2022-10-06T15:26:32.087Z,18.51
2022-10-06T15:29:19.633Z,18.13
2022-10-06T15:32:07.284Z,17.71
2022-10-06T15:34:54.910Z,17.83
2022-10-06T15:37:42.482Z,17.47
2022-10-06T15:40:30.023Z,17.50
2022-10-06T15:43:17.601Z,17.44
2022-10-06T15:46:05.239Z,17.55
2022-10-06T15:48:52.919Z,17.62
2022-10-06T15:51:42.451Z,17.39
2022-10-06T15:54:30.030Z,17.52
2022-10-06T15:57:20.889Z,17.03
2022-10-06T16:00:08.934Z,17.03
2022-10-06T16:02:56.519Z,17.18
2022-10-06T16:05:44.156Z,17.60
2022-10-06T16:08:31.690Z,17.15
2022-10-06T16:11:19.296Z,17.56
2022-10-06T16:14:06.834Z,17.27
2022-10-06T16:16:54.392Z,17.20
2022-10-06T16:19:41.919Z,17.14
2022-10-06T16:22:29.484Z,17.12
2022-10-06T16:25:17.027Z,16.71
2022-10-06T16:28:04.758Z,16.75
2022-10-06T16:30:52.553Z,16.73
2022-10-06T16:33:40.117Z,16.78
2022-10-06T16:36:27.671Z,16.58
2022-10-06T16:39:15.229Z,16.63
2022-10-06T16:42:02.777Z,16.67
2022-10-06T16:44:50.354Z,16.24
2022-10-06T16:47:37.950Z,16.36
2022-10-06T16:50:25.518Z,16.36
2022-10-06T16:53:16.841Z,16.10
2022-10-06T16:56:04.586Z,16.14
2022-10-06T16:58:52.128Z,15.86
2022-10-06T17:01:39.724Z,15.91
2022-10-06T17:04:27.332Z,15.76
2022-10-06T17:07:14.941Z,15.69
2022-10-06T17:10:19.562Z,15.79
2022-10-06T17:13:07.919Z,15.44
2022-10-06T17:15:55.520Z,15.63
2022-10-06T17:18:43.089Z,15.55
2022-10-06T17:21:45.541Z,15.82
2022-10-06T17:24:34.074Z,15.75
2022-10-06T17:27:21.650Z,15.56
2022-10-06T17:30:09.219Z,15.51
2022-10-06T17:32:56.743Z,15.13
2022-10-06T17:35:44.311Z,14.86
2022-10-06T17:38:31.862Z,15.13
2022-10-06T17:41:19.579Z,15.14
2022-10-06T17:44:09.104Z,15.09
2022-10-06T17:46:56.688Z,15.49
2022-10-06T17:49:44.271Z,15.37
2022-10-06T17:52:31.822Z,15.47
2022-10-06T17:55:19.383Z,15.58
2022-10-06T17:58:06.967Z,15.45
2022-10-06T18:00:54.593Z,15.33
2022-10-06T18:03:42.160Z,15.25
2022-10-06T18:06:29.725Z,15.43
2022-10-06T18:09:17.280Z,15.30
2022-10-06T18:12:04.846Z,15.49
2022-10-06T18:14:52.417Z,15.21
2022-10-06T18:17:39.971Z,15.20
2022-10-06T18:20:27.530Z,15.17
2022-10-06T18:23:15.074Z,15.13
2022-10-06T18:26:02.680Z,15.01
2022-10-06T18:28:50.231Z,15.01
2022-10-06T18:31:37.828Z,14.94
2022-10-06T18:37:32.922Z,15.08
2022-10-06T18:40:20.474Z,14.81
2022-10-06T18:43:08.080Z,14.81
2022-10-06T18:45:55.672Z,14.66
2022-10-06T18:48:43.299Z,14.65
2022-10-06T18:51:30.932Z,14.76
2022-10-06T18:54:18.790Z,14.58
2022-10-06T18:57:06.370Z,14.57
2022-10-06T18:59:53.944Z,14.56
2022-10-06T19:02:44.926Z,14.40
2022-10-06T19:05:35.747Z,14.53
2022-10-06T19:08:23.350Z,14.56
2022-10-06T19:11:11.140Z,14.63
2022-10-06T19:13:58.708Z,14.60
2022-10-06T19:16:46.383Z,14.34
2022-10-06T19:19:34.187Z,14.10
2022-10-06T19:22:23.783Z,14.02
2022-10-06T19:25:11.462Z,14.05
2022-10-06T19:27:59.172Z,13.92
2022-10-06T19:30:46.863Z,13.99
2022-10-06T19:33:34.463Z,14.03
2022-10-06T19:36:22.075Z,13.88
2022-10-06T19:39:09.641Z,13.86
2022-10-06T19:41:57.243Z,13.98
2022-10-06T19:44:44.868Z,14.09
2022-10-06T19:47:32.542Z,14.16
2022-10-06T19:50:20.117Z,14.05
2022-10-06T19:53:09.669Z,14.22
2022-10-06T19:55:57.249Z,14.14
2022-10-06T19:58:44.821Z,14.23
2022-10-06T20:01:32.423Z,14.22
2022-10-06T20:04:22.136Z,14.27
2022-10-06T20:07:09.730Z,14.08
2022-10-06T20:09:57.310Z,14.03
2022-10-06T20:12:44.849Z,14.23
2022-10-06T20:15:32.510Z,13.76
2022-10-06T20:18:20.047Z,13.66
2022-10-06T20:21:07.673Z,14.02
2022-10-06T20:23:55.221Z,13.82
2022-10-06T20:26:42.788Z,13.70
2022-10-06T20:29:30.316Z,13.72
2022-10-06T20:32:17.991Z,13.73
2022-10-06T20:35:07.541Z,13.63
2022-10-06T20:37:55.154Z,13.82
2022-10-06T20:40:42.772Z,13.81
2022-10-06T20:43:30.324Z,13.77
2022-10-06T20:46:17.917Z,14.06
2022-10-06T20:49:05.563Z,14.01
2022-10-06T20:51:53.109Z,14.17
2022-10-06T20:54:40.657Z,14.29
2022-10-06T20:57:33.532Z,14.28
2022-10-06T21:00:24.587Z,14.19
2022-10-06T21:03:12.301Z,14.10
2022-10-06T21:05:59.874Z,13.90
2022-10-06T21:08:47.424Z,14.15
2022-10-06T21:11:35.024Z,14.30
2022-10-06T21:14:22.550Z,14.05
2022-10-06T21:17:10.075Z,14.33
2022-10-06T21:19:57.720Z,14.55
2022-10-06T21:22:45.246Z,14.62
2022-10-06T21:25:32.917Z,14.89
2022-10-06T21:28:20.567Z,14.74
2022-10-06T21:31:08.206Z,14.69
2022-10-06T21:33:55.853Z,14.42
2022-10-06T21:36:43.541Z,14.83
2022-10-06T21:39:31.123Z,15.14
2022-10-06T21:42:18.709Z,15.11
2022-10-06T21:45:06.233Z,14.69
2022-10-06T21:47:53.964Z,14.38
2022-10-06T21:50:41.527Z,14.68
2022-10-06T21:53:31.099Z,14.91
2022-10-06T21:56:18.635Z,15.33
2022-10-06T21:59:06.196Z,15.73
2022-10-06T22:01:53.820Z,16.11
2022-10-06T22:04:41.438Z,15.70
2022-10-06T22:07:29.018Z,15.49
2022-10-06T22:10:16.567Z,15.09
2022-10-06T22:13:04.083Z,14.10
2022-10-06T22:15:51.696Z,14.46
2022-10-06T22:18:39.274Z,14.36
2022-10-06T22:21:26.924Z,13.87
2022-10-06T22:24:16.438Z,13.82
2022-10-06T22:27:03.975Z,12.89
2022-10-06T22:29:51.497Z,12.71
2022-10-06T22:32:39.034Z,12.22
2022-10-06T22:35:26.551Z,12.28
2022-10-06T22:38:14.112Z,11.99
2022-10-06T22:41:01.643Z,11.97
2022-10-06T22:43:49.203Z,12.00
2022-10-06T22:46:36.814Z,12.13
2022-10-06T22:49:24.501Z,12.33
2022-10-06T22:52:14.039Z,12.53
2022-10-06T22:55:01.670Z,12.13
2022-10-06T22:57:51.186Z,12.48
2022-10-06T23:00:38.783Z,12.15
2022-10-06T23:03:26.450Z,11.90
2022-10-06T23:06:14.007Z,12.22
2022-10-06T23:09:01.559Z,12.39
2022-10-06T23:11:49.077Z,12.13
2022-10-06T23:14:36.625Z,12.04
2022-10-06T23:17:24.180Z,12.01
2022-10-06T23:20:11.713Z,11.86
2022-10-06T23:22:59.260Z,11.78
2022-10-06T23:25:46.823Z,11.58
2022-10-06T23:28:34.445Z,11.55
2022-10-06T23:31:22.113Z,11.73
2022-10-06T23:34:09.710Z,11.89
2022-10-06T23:36:57.231Z,11.99
2022-10-06T23:39:44.770Z,11.75
2022-10-06T23:42:32.295Z,11.88
2022-10-06T23:45:19.851Z,11.98
2022-10-06T23:48:07.380Z,11.97
2022-10-06T23:50:54.927Z,12.29
2022-10-06T23:53:42.454Z,12.50
2022-10-06T23:56:29.986Z,13.05
2022-10-06T23:59:17.510Z,13.19
